Date,TemperatureHighF,TemperatureAvgF,TemperatureLowF,DewpointHighF,DewpointAvgF,DewpointLowF,HumidityHigh,HumidityAvg,HumidityLow,PressureMaxIn,PressureMinIn,WindSpeedMaxMPH,WindSpeedAvgMPH,GustSpeedMaxMPH,PrecipitationSumIn
2013-1-1,76.8,74.5,72.3,76.8,74.5,72.3,100,100,100,30.08,29.95,10,5,14,0.00
2013-1-2,74.2,74.1,74.0,74.2,74.1,74.0,100,100,100,29.97,29.96,0,0,0,0.00
2013-1-3,79.4,75.9,74.0,79.4,75.9,74.0,100,100,100,30.04,29.95,5,1,8,0.00
2013-1-4,80.3,75.2,73.2,80.3,75.2,73.2,100,100,100,30.12,30.02,4,1,7,0.03
2013-1-5,78.6,74.9,72.1,78.6,73.9,-99.9,100,99,100,30.13,30.04,8,3,13,0.01
2013-1-6,79.8,77.0,75.3,79.8,77.0,75.3,100,100,100,30.08,29.96,9,5,14,0.00
2013-1-7,79.6,76.6,74.7,79.6,76.6,74.7,100,100,100,30.05,29.97,8,3,11,0.00
2013-1-8,79.9,77.6,74.4,79.9,77.6,74.4,100,100,100,30.09,29.96,9,4,14,0.00
2013-1-9,79.9,78.1,76.7,79.9,78.1,76.7,100,100,100,30.15,30.03,11,8,19,0.00
2013-1-10,78.6,77.3,76.1,78.6,77.3,76.1,100,100,100,30.17,30.05,13,9,20,0.00
2013-1-11,79.8,77.1,75.4,79.8,77.1,75.4,100,100,100,30.13,30.04,11,8,17,0.00
2013-1-12,79.2,76.6,75.4,79.2,76.6,75.4,100,100,100,30.07,29.98,9,6,13,0.00
2013-1-13,78.3,76.1,74.6,78.3,76.1,74.6,100,100,100,30.02,29.95,11,7,17,0.01
2013-1-14,78.6,76.1,74.7,78.6,76.1,74.7,100,100,100,30.06,30.00,10,6,16,0.00
2013-1-15,79.4,76.2,74.6,79.4,76.2,74.6,100,100,100,30.04,29.94,7,6,13,0.00
2013-1-16,79.6,76.7,74.4,79.6,76.7,74.4,100,100,100,30.01,29.92,8,4,11,0.00
2013-1-17,77.4,73.4,68.4,77.4,73.4,68.4,100,100,100,30.03,29.93,15,8,25,0.23
2013-1-18,68.4,63.7,60.1,68.4,63.7,60.1,100,100,100,30.15,30.03,13,6,21,0.00
2013-1-19,72.7,69.9,66.4,72.7,68.7,-99.9,100,99,100,30.12,30.01,7,2,11,0.00
2013-1-20,75.1,72.0,69.1,75.1,72.0,69.1,100,100,100,30.06,29.92,7,2,9,0.01
2013-1-21,78.1,72.7,70.1,78.1,72.7,70.1,100,100,100,30.00,29.92,10,3,13,0.00
2013-1-22,72.5,69.8,66.6,72.5,68.8,-99.9,100,99,100,30.10,29.94,13,8,18,0.00
2013-1-23,73.3,69.1,65.8,73.3,68.1,-99.9,100,99,100,30.18,30.08,11,7,18,0.00
2013-1-24,73.3,68.6,64.8,73.3,68.6,64.8,100,100,100,30.20,30.09,12,6,17,0.00
2013-1-25,74.9,69.7,66.0,74.9,69.7,66.0,100,100,100,30.19,30.08,10,6,16,0.00
2013-1-26,75.1,70.4,66.4,75.1,70.4,66.4,100,100,100,30.14,30.06,11,5,21,0.00
2013-1-27,76.0,73.2,70.6,76.0,73.2,70.6,100,100,100,30.15,30.07,12,6,18,0.00
2013-1-28,77.0,75.2,73.7,77.0,75.2,73.7,100,100,100,30.20,30.11,10,8,14,0.00
2013-1-29,78.3,75.8,74.4,78.3,75.8,74.4,100,100,100,30.13,30.02,12,7,14,0.00
2013-1-30,77.4,75.7,74.4,77.4,75.7,74.4,100,100,100,30.03,29.88,13,8,21,0.00
2013-1-31,77.0,71.9,67.3,77.0,71.9,67.3,100,100,100,30.08,29.88,13,6,18,0.01
2013-2-1,72.3,66.2,59.9,72.3,66.2,59.9,100,100,100,30.16,30.05,15,10,25,0.00
2013-2-2,73.3,67.5,63.1,73.3,67.5,63.1,100,100,100,30.15,30.03,12,6,20,0.00
2013-2-3,70.9,67.9,64.7,70.9,67.9,64.7,100,100,100,30.09,29.98,10,6,16,0.00
2013-2-4,72.1,67.4,62.1,72.1,67.4,62.1,100,100,100,30.05,29.93,11,6,18,0.00
2013-2-5,77.0,72.3,65.5,77.0,72.3,65.5,100,100,100,29.99,29.92,6,1,8,0.00
2013-2-6,77.9,74.1,68.9,77.9,74.1,68.9,100,100,100,30.00,29.92,7,3,12,0.00
2013-2-7,78.1,74.9,72.5,78.1,74.9,72.5,100,100,100,29.99,29.87,9,3,12,0.00
2013-2-8,80.7,75.7,71.1,80.7,75.7,71.1,100,100,100,29.97,29.86,8,4,13,0.00
2013-2-9,77.9,73.2,68.8,77.9,73.2,68.8,100,100,100,30.06,29.94,10,7,16,0.00
2013-2-10,76.8,74.9,73.3,76.8,74.9,73.3,100,100,100,30.13,30.03,11,8,17,0.00
2013-2-11,77.9,75.3,73.3,77.9,75.3,73.3,100,100,100,30.11,30.02,12,7,18,0.00
2013-2-12,80.3,76.7,74.6,80.3,76.7,74.6,100,100,100,30.03,29.90,10,6,14,0.00
2013-2-13,80.5,77.2,75.3,80.5,77.2,75.3,100,100,100,29.94,29.85,7,3,12,0.00
2013-2-14,80.7,76.8,67.4,80.7,76.8,67.4,100,100,100,29.91,29.83,14,4,19,0.17
2013-2-15,75.1,70.0,66.3,75.1,70.0,66.3,100,100,100,29.92,29.84,11,4,17,0.29
2013-2-16,71.3,68.5,65.2,71.3,68.5,65.2,100,100,100,30.00,29.80,18,10,26,0.21
2013-2-17,65.6,56.8,52.0,65.6,56.8,52.0,100,100,100,30.21,29.99,19,9,26,0.00
2013-2-18,70.4,62.3,53.9,70.4,62.3,53.9,100,100,100,30.20,30.09,12,8,17,0.00
2013-2-19,75.8,71.1,67.1,75.8,71.1,67.1,100,100,100,30.09,30.00,11,5,17,0.25
2013-2-20,74.9,70.6,66.8,74.9,70.6,66.8,100,100,100,30.03,29.91,8,2,11,0.02
2013-2-21,78.6,75.0,69.6,78.6,75.0,69.6,100,100,100,29.99,29.91,10,4,12,0.00
2013-2-22,79.8,76.5,74.6,79.8,76.5,74.6,100,100,100,30.00,29.90,9,5,13,0.00
2013-2-23,80.7,77.2,75.6,80.7,77.2,75.6,100,100,100,29.95,29.85,12,5,16,0.00
2013-2-24,81.4,77.8,75.1,81.4,77.8,75.1,100,100,100,29.92,29.83,3,1,6,0.00
2013-2-25,81.4,78.2,76.3,81.4,78.2,76.3,100,100,100,29.83,29.72,12,5,16,0.00
2013-2-26,81.6,78.5,76.8,81.6,78.5,76.8,100,100,100,29.84,29.72,12,7,17,0.00
2013-2-27,80.7,76.9,73.3,80.7,76.9,73.3,100,100,100,29.88,29.79,9,3,13,0.00
2013-2-28,74.0,70.4,65.5,74.0,70.4,65.5,100,100,100,29.92,29.83,12,5,17,0.06
2013-3-1,70.4,66.5,62.1,70.4,66.5,62.1,100,100,100,29.91,29.83,11,4,16,0.01
2013-3-2,65.5,61.4,58.7,65.5,61.4,58.7,100,100,100,29.97,29.88,13,8,20,0.03
2013-3-3,62.9,59.4,53.2,62.9,59.4,53.2,100,100,100,30.07,29.86,13,6,17,0.03
2013-3-4,62.7,58.0,52.6,62.7,58.0,52.6,100,100,100,30.15,30.03,11,5,18,0.00
2013-3-5,72.8,66.3,58.1,72.8,66.3,58.1,100,100,100,30.09,30.01,7,2,11,0.00
2013-3-6,75.6,67.9,63.1,75.6,67.9,63.1,100,100,100,30.04,29.96,15,6,21,0.00
2013-3-7,63.1,59.7,55.7,63.1,59.7,55.7,100,100,100,30.13,30.00,14,8,18,0.00
2013-3-8,73.3,65.2,58.9,73.3,65.2,58.9,100,100,100,30.11,30.03,10,5,14,0.00
2013-3-9,74.2,68.0,63.7,74.2,68.0,63.7,100,100,100,30.09,30.01,11,6,13,0.00
2013-3-10,73.3,70.6,66.6,73.3,70.6,66.6,100,100,100,30.06,29.95,10,6,18,0.00
2013-3-11,76.1,73.1,70.4,76.1,73.1,70.4,100,100,100,29.99,29.86,10,7,18,0.00
2013-3-12,77.9,74.5,68.8,77.9,74.5,68.8,100,100,100,29.94,29.82,12,7,22,0.00
2013-3-13,73.2,68.4,62.7,73.2,68.4,62.7,100,100,100,30.04,29.91,12,8,21,0.00
2013-3-14,70.4,65.5,60.4,70.4,65.5,60.4,100,100,100,30.12,30.00,15,10,27,0.00
2013-3-15,72.0,65.1,59.9,72.0,65.1,59.9,100,100,100,30.17,30.05,14,7,25,0.00
2013-3-16,73.7,68.9,64.5,73.7,68.9,64.5,100,100,100,30.10,30.01,7,4,14,0.00
2013-3-17,76.1,72.9,70.3,76.1,72.9,70.3,100,100,100,30.04,29.92,9,6,17,0.00
2013-3-18,78.5,75.0,73.2,78.5,74.2,-99.9,100,100,100,29.98,29.87,14,6,21,0.00
2013-3-19,74.4,71.8,67.4,74.4,71.8,67.4,100,100,100,29.94,29.83,13,3,25,0.63
2013-3-20,76.0,72.1,67.6,76.0,72.1,67.6,100,100,100,29.91,29.76,12,3,21,0.00
2013-3-21,74.4,70.7,68.6,74.4,70.7,68.6,100,100,100,29.87,29.75,9,2,16,0.00
2013-3-22,78.8,74.9,70.1,78.8,74.9,70.1,100,100,100,29.90,29.80,9,3,14,0.00
2013-3-23,80.1,77.4,75.3,80.1,77.4,75.3,100,100,100,29.89,29.74,8,4,14,0.00
2013-3-24,84.1,78.6,76.3,84.1,78.6,76.3,100,100,100,29.80,29.64,16,6,27,0.00
2013-3-25,79.0,74.6,66.6,79.0,73.8,-99.9,100,100,100,29.92,29.68,15,6,24,0.27
2013-3-26,71.5,64.0,59.8,71.5,64.0,59.8,100,100,100,30.13,29.91,18,13,32,0.00
2013-3-27,63.1,58.7,52.3,63.1,58.7,52.3,100,100,100,30.18,30.09,13,9,26,0.00
2013-3-28,69.9,64.3,58.9,69.9,64.3,58.9,100,100,100,30.17,30.08,12,7,24,0.00
2013-3-29,73.0,68.1,63.5,73.0,68.1,63.5,100,100,100,30.19,30.10,11,7,21,0.00
2013-3-30,74.0,71.0,66.1,74.0,71.0,66.1,100,100,100,30.15,30.05,9,5,17,0.00
2013-3-31,77.2,73.7,70.8,77.2,73.7,70.8,100,100,100,30.09,29.95,9,5,17,0.00
2013-4-1,80.1,75.5,72.3,80.1,75.5,72.3,100,100,100,29.99,29.90,7,3,17,0.00
2013-4-2,79.4,74.9,71.5,79.4,74.9,71.5,100,100,100,30.01,29.92,5,1,10,0.00
2013-4-3,80.1,76.3,72.8,80.1,76.3,72.8,100,100,100,29.98,29.89,9,5,17,0.00
2013-4-4,81.1,77.6,75.4,81.1,77.6,75.4,100,100,100,29.95,29.84,9,5,16,0.00
2013-4-5,77.6,72.1,66.0,77.6,72.1,66.0,100,100,100,29.91,29.74,16,6,25,1.43
2013-4-6,74.6,69.1,64.7,74.6,69.1,64.7,100,100,100,29.99,29.86,14,8,26,0.00
2013-4-7,77.9,75.1,73.0,77.9,74.3,-99.9,100,99,100,30.02,29.90,11,8,19,0.00
2013-4-8,79.2,76.1,74.2,79.2,76.1,74.2,100,100,100,30.02,29.92,11,7,16,0.00
2013-4-9,80.5,77.0,74.9,80.5,77.0,74.9,100,100,100,30.03,29.95,13,7,24,0.00
2013-4-10,81.4,78.4,76.0,81.4,78.4,76.0,100,100,100,29.99,29.88,12,7,17,0.00
2013-4-11,80.5,78.6,75.8,80.5,78.6,75.8,100,100,100,29.91,29.79,14,10,21,0.01
2013-4-12,82.8,79.8,77.9,82.8,79.8,77.9,100,100,100,29.89,29.79,13,4,17,0.00
2013-4-13,84.9,80.2,76.5,84.9,80.2,76.5,100,100,100,29.89,29.81,10,2,13,0.04
2013-4-14,83.2,80.0,78.5,83.2,80.0,78.5,100,100,100,29.88,29.80,10,6,14,0.00
2013-4-15,84.5,81.7,79.2,84.5,81.7,79.2,100,100,100,29.95,29.83,9,2,14,0.00
2013-4-16,84.0,81.3,79.4,84.0,81.3,79.4,100,100,100,30.00,29.91,10,5,17,0.00
2013-4-17,83.2,80.7,78.8,83.2,80.7,78.8,100,100,100,30.00,29.91,10,6,14,0.00
2013-4-18,83.0,79.9,75.4,83.0,79.9,75.4,100,100,100,29.95,29.87,11,8,17,0.05
2013-4-19,83.8,81.1,79.4,83.8,81.1,79.4,100,100,100,29.95,29.86,14,8,18,0.00
2013-4-20,84.7,81.3,78.5,84.7,81.3,78.5,100,100,100,29.98,29.87,8,3,13,0.00
2013-4-21,82.8,79.1,72.7,82.8,79.1,72.7,100,100,100,29.98,29.90,10,3,15,0.06
2013-4-22,80.7,76.8,71.6,80.7,76.8,71.6,100,100,100,29.97,29.84,11,2,11,0.86
2013-4-23,84.3,77.9,74.2,84.3,77.9,74.2,100,100,100,29.97,29.86,12,6,18,0.00
2013-4-24,81.4,78.1,75.1,81.4,78.1,75.1,100,100,100,30.03,29.93,13,7,18,0.00
2013-4-25,81.4,78.0,75.4,81.4,78.0,75.4,100,100,100,30.09,29.98,12,6,17,0.00
2013-4-26,79.9,76.9,73.9,79.9,76.9,73.9,100,100,100,30.12,30.01,12,6,19,0.00
2013-4-27,79.8,77.0,74.0,79.8,77.0,74.0,100,100,100,30.09,29.96,11,7,18,0.00
2013-4-28,80.9,77.6,71.6,80.9,77.6,71.6,100,100,100,29.99,29.88,12,8,18,0.03
2013-4-29,80.7,77.8,72.0,80.7,77.8,72.0,100,100,100,29.92,29.84,13,7,20,0.27
2013-4-30,83.2,80.2,75.1,83.2,79.4,-99.9,100,100,100,29.90,29.82,10,6,18,0.03
2013-5-1,81.6,79.7,75.6,81.6,79.7,75.6,100,100,100,29.90,29.80,8,3,14,0.18
2013-5-2,80.1,74.1,68.9,80.1,74.1,68.9,100,100,100,29.86,29.72,20,5,25,2.52
2013-5-3,82.0,77.3,71.8,82.0,77.3,71.8,100,100,100,29.74,29.63,7,3,12,0.03
2013-5-4,79.8,77.1,74.6,79.8,77.1,74.6,100,100,100,29.76,29.63,13,8,19,0.00
2013-5-5,75.6,74.1,72.8,75.6,74.1,72.8,100,100,100,29.86,29.72,12,8,24,0.00
2013-5-6,78.1,74.6,71.1,78.1,74.6,71.1,100,100,100,29.95,29.85,9,4,16,0.00
2013-5-7,78.6,75.5,72.3,78.6,75.5,72.3,100,100,100,30.00,29.89,5,1,8,0.00
2013-5-8,79.9,76.2,71.1,79.9,75.2,-99.9,100,99,100,30.05,29.97,3,1,7,0.00
2013-5-9,82.8,78.4,74.2,82.8,78.4,74.2,100,100,100,30.06,29.96,8,4,13,0.00
2013-5-10,84.5,81.0,78.5,84.5,81.0,78.5,100,100,100,30.03,29.92,7,3,11,0.00
2013-5-11,84.5,81.3,79.4,84.5,80.2,-99.9,100,99,100,29.99,29.91,10,4,17,0.00
2013-5-12,84.0,81.0,79.0,84.0,81.0,79.0,100,100,100,29.97,29.89,11,3,17,0.00
2013-5-13,83.6,80.6,78.1,83.6,80.6,78.1,100,100,100,30.02,29.91,10,3,13,0.00
2013-5-14,80.9,78.5,76.5,80.9,78.5,76.5,100,100,100,30.06,29.95,14,9,20,0.00
2013-5-15,79.8,77.2,74.6,79.8,77.2,74.6,100,100,100,30.07,29.98,12,7,18,0.00
2013-5-16,81.2,78.0,75.6,81.2,78.0,75.6,100,100,100,30.01,29.92,10,6,18,0.00
2013-5-17,83.4,79.6,75.8,83.4,79.6,75.8,100,100,100,30.00,29.92,7,2,11,0.00
2013-5-18,84.0,81.0,79.0,84.0,81.0,79.0,100,100,100,30.01,29.94,7,3,12,0.00
2013-5-19,83.4,80.8,79.0,83.4,80.8,79.0,100,100,100,30.00,29.90,8,4,12,0.00
2013-5-20,83.8,79.5,69.4,83.8,79.5,69.4,100,100,100,29.96,29.89,18,5,18,0.63
2013-5-21,82.8,80.1,77.9,82.8,80.1,77.9,100,100,100,29.93,29.82,8,4,12,0.01
2013-5-22,85.5,81.8,79.2,85.5,81.8,79.2,100,100,100,29.88,29.80,8,4,11,0.00
2013-5-23,85.9,82.1,79.6,85.9,82.1,79.6,100,100,100,29.94,29.84,9,4,12,0.00
2013-5-24,86.3,81.9,79.0,86.3,81.9,79.0,100,100,100,29.99,29.88,10,2,16,0.00
2013-5-25,85.1,81.9,79.9,85.1,81.9,79.9,100,100,100,30.04,29.93,14,5,20,0.00
2013-5-26,83.6,80.5,77.6,83.6,80.5,77.6,100,100,100,30.06,29.99,12,8,21,0.03
2013-5-27,81.4,77.4,71.8,81.4,77.4,71.8,100,100,100,30.03,29.92,18,8,30,1.41
2013-5-28,80.9,78.8,76.7,80.9,78.8,76.7,100,100,100,29.99,29.91,13,7,18,0.00
2013-5-29,79.9,76.4,71.6,79.9,76.4,71.6,100,100,100,29.96,29.88,13,6,17,0.96
2013-5-30,79.4,76.5,72.7,79.4,76.5,72.7,100,100,100,29.94,29.87,11,4,15,1.15
2013-5-31,84.1,78.9,74.7,84.1,78.9,74.7,100,100,100,29.94,29.88,8,2,12,0.00
2013-6-1,83.6,78.6,75.1,83.6,78.6,75.1,100,100,100,29.95,29.85,17,1,20,2.73
2013-6-2,82.8,77.6,73.9,82.8,77.6,73.9,100,100,100,29.93,29.84,14,2,18,0.34
2013-6-3,80.9,77.7,74.4,80.9,77.7,74.4,100,100,100,29.94,29.83,13,2,18,0.90
2013-6-4,81.1,78.7,74.0,81.1,78.7,74.0,100,100,100,29.94,29.86,11,4,15,0.35
2013-6-5,83.0,81.5,77.2,83.0,81.5,77.2,100,100,100,29.91,29.77,10,6,17,0.01
2013-6-6,84.3,80.6,74.4,84.3,80.6,74.4,100,100,100,29.82,29.71,17,8,21,0.16
2013-6-7,84.7,81.0,74.0,84.7,81.0,74.0,100,100,100,29.93,29.78,12,6,14,0.05
2013-6-8,86.3,82.4,78.1,86.3,82.4,78.1,100,100,100,29.99,29.89,7,4,10,0.06
2013-6-9,84.9,82.5,78.1,84.9,82.5,78.1,100,100,100,29.99,29.91,9,6,14,0.05
2013-6-10,85.1,82.8,79.4,85.1,82.8,79.4,100,100,100,29.98,29.89,8,6,16,0.05
2013-6-11,86.3,83.2,79.4,86.3,83.2,79.4,100,100,100,29.98,29.90,8,2,10,0.02
2013-6-12,86.3,81.8,76.1,86.3,81.8,76.1,100,100,100,30.00,29.89,11,2,13,0.02
2013-6-13,84.9,81.5,78.8,84.9,81.5,78.8,100,100,100,29.97,29.87,7,2,11,0.03
2013-6-14,85.3,82.0,79.6,85.3,82.0,79.6,100,100,100,29.91,29.83,5,2,8,0.01
2013-6-15,86.7,83.4,80.9,86.7,83.4,80.9,100,100,100,29.96,29.85,4,1,7,0.02
2013-6-16,86.7,83.7,81.4,86.7,83.7,81.4,100,100,100,29.98,29.92,8,3,12,0.01
2013-6-17,86.5,84.0,82.4,86.5,84.0,82.4,100,100,100,29.98,29.90,9,5,14,0.00
2013-6-18,87.2,84.0,82.0,87.2,84.0,82.0,100,100,100,29.97,29.90,9,4,13,0.00
2013-6-19,87.0,84.4,81.6,87.0,84.4,81.6,100,100,100,29.95,29.89,8,4,11,0.06
2013-6-20,87.8,84.6,82.8,87.8,84.6,82.8,100,100,100,30.00,29.92,9,5,16,0.00
2013-6-21,87.2,84.2,82.4,87.2,84.2,82.4,100,100,100,30.02,29.93,8,5,13,0.00
2013-6-22,87.0,84.1,79.9,87.0,84.1,79.9,100,100,100,30.00,29.93,8,4,13,0.02
2013-6-23,84.7,82.8,79.2,84.7,82.8,79.2,100,100,100,30.02,29.93,10,6,14,0.06
2013-6-24,86.3,83.4,77.7,86.3,82.1,-99.9,100,99,100,30.06,29.97,13,6,14,0.06
2013-6-25,87.0,83.6,80.5,87.0,83.6,80.5,100,100,100,30.02,29.92,9,5,13,0.00
2013-6-26,87.0,83.9,82.4,87.0,83.9,82.4,100,100,100,29.98,29.90,9,5,13,0.00
2013-6-27,86.7,83.7,82.2,86.7,83.7,82.2,100,100,100,29.95,29.87,7,3,9,0.00
2013-6-28,87.0,84.2,80.1,87.0,84.2,80.1,100,100,100,29.90,29.80,6,1,9,0.00
2013-6-29,85.7,83.7,81.4,85.7,83.7,81.4,100,100,100,29.85,29.77,10,5,13,0.00
2013-6-30,84.9,82.6,77.7,84.9,82.6,77.7,100,100,100,29.87,29.78,17,10,21,0.19
2013-7-1,85.5,82.8,80.3,85.5,82.8,80.3,100,100,100,29.93,29.82,13,6,18,0.00
2013-7-2,86.7,81.8,75.3,86.7,81.8,75.3,100,100,100,30.01,29.87,12,4,16,0.04
2013-7-3,84.7,81.3,75.6,84.7,81.3,75.6,100,100,100,30.01,29.94,11,6,20,0.56
2013-7-4,86.1,83.4,79.8,86.1,83.4,79.8,100,100,100,30.02,29.94,13,8,18,0.00
2013-7-5,84.1,80.5,74.9,84.1,80.5,74.9,100,100,100,30.02,29.94,20,6,22,0.57
2013-7-6,84.9,82.5,80.3,84.9,82.5,80.3,100,100,100,30.00,29.91,10,6,14,0.09
2013-7-7,85.5,82.6,77.7,85.5,82.6,77.7,100,100,100,29.98,29.92,11,6,25,0.16
2013-7-8,85.7,82.7,78.5,85.7,82.7,78.5,100,100,100,30.04,29.96,10,6,14,0.10
2013-7-9,84.9,81.6,78.6,84.9,81.6,78.6,100,100,100,30.05,29.97,7,1,12,0.03
2013-7-10,86.3,82.3,77.7,86.3,82.3,77.7,100,100,100,30.00,29.92,9,1,12,0.00
2013-7-11,87.0,83.7,81.2,87.0,83.7,81.2,100,100,100,29.96,29.86,8,2,13,0.00
2013-7-12,86.1,82.7,79.9,86.1,82.7,79.9,100,100,100,29.90,29.83,9,3,13,0.00
2013-7-13,84.9,81.6,73.2,84.9,81.6,73.2,100,100,100,29.95,29.84,12,8,16,0.78
2013-7-14,84.7,81.0,75.3,84.7,79.9,-99.9,100,99,100,29.98,29.88,12,6,18,0.48
2013-7-15,83.2,78.5,72.8,83.2,78.5,72.8,100,100,100,29.99,29.91,13,4,18,0.35
2013-7-16,83.6,80.3,74.6,83.6,80.3,74.6,100,100,100,30.00,29.91,14,7,18,0.49
2013-7-17,80.7,77.7,74.6,80.7,77.7,74.6,100,100,100,30.03,29.93,11,3,15,0.82
2013-7-18,81.8,77.5,70.9,81.8,77.5,70.9,100,100,100,30.05,29.94,13,4,14,1.99
2013-7-19,85.7,82.8,77.7,85.7,82.8,77.7,100,100,100,30.02,29.94,8,4,12,0.00
2013-7-20,86.1,83.4,79.9,86.1,83.4,79.9,100,100,100,30.02,29.92,9,4,13,0.04
2013-7-21,87.0,83.8,82.2,87.0,83.8,82.2,100,100,100,30.05,29.96,7,4,12,0.00
2013-7-22,86.7,83.6,81.4,86.7,83.6,81.4,100,100,100,30.06,29.98,6,3,11,0.00
2013-7-23,87.2,83.9,81.6,87.2,83.9,81.6,100,100,100,30.03,29.92,6,2,10,0.00
2013-7-24,87.0,83.8,80.9,87.0,83.8,80.9,100,100,100,29.95,29.87,4,1,10,0.00
2013-7-25,87.0,83.9,81.2,87.0,83.9,81.2,100,100,100,29.97,29.85,8,2,12,0.00
2013-7-26,88.2,84.4,81.2,88.2,84.4,81.2,100,100,100,29.97,29.91,8,3,13,0.00
2013-7-27,88.0,84.5,81.4,88.0,84.5,81.4,100,100,100,29.94,29.87,8,2,13,0.03
2013-7-28,88.2,84.1,77.4,88.2,84.1,77.4,100,100,100,29.99,29.86,8,1,8,0.06
2013-7-29,88.4,85.1,83.2,88.4,85.1,83.2,100,100,100,30.03,29.92,8,2,13,0.00
2013-7-30,87.0,84.0,80.1,87.0,84.0,80.1,100,100,100,30.05,29.98,9,4,13,0.00
2013-7-31,87.8,85.2,83.0,87.8,85.2,83.0,100,100,100,30.01,29.89,10,7,16,0.09
2013-8-1,87.6,84.5,82.6,87.6,84.5,82.6,100,100,100,29.94,29.84,9,4,13,0.00
2013-8-2,88.0,84.7,81.6,88.0,83.7,-99.9,100,99,100,29.98,29.84,3,1,6,0.00
2013-8-3,88.4,85.2,83.0,88.4,85.2,83.0,100,100,100,30.04,29.95,7,2,10,0.00
2013-8-4,89.0,85.4,83.0,89.0,85.4,83.0,100,100,100,30.03,29.93,3,0,5,0.00
2013-8-5,89.3,85.6,82.4,89.3,85.6,82.4,100,100,100,29.98,29.89,5,2,8,0.00
2013-8-6,86.3,82.4,76.8,86.3,82.4,76.8,100,100,100,29.91,29.82,11,2,14,1.56
2013-8-7,88.0,83.7,78.3,88.0,83.7,78.3,100,100,100,29.87,29.81,12,2,12,0.12
2013-8-8,87.2,84.8,83.2,87.2,84.8,83.2,100,100,100,29.89,29.80,11,7,15,0.00
2013-8-9,85.9,82.9,78.5,85.9,82.9,78.5,100,100,100,29.93,29.83,12,6,22,0.01
2013-8-10,87.6,85.2,82.4,87.6,85.2,82.4,100,100,100,30.00,29.90,11,8,19,0.00
2013-8-11,87.6,85.0,81.6,87.6,85.0,81.6,100,100,100,30.03,29.95,11,8,18,0.06
2013-8-12,87.2,84.5,81.8,87.2,84.5,81.8,100,100,100,30.00,29.90,11,7,16,0.00
2013-8-13,87.8,84.9,82.8,87.8,84.9,82.8,100,100,100,29.94,29.87,8,4,13,0.00
2013-8-14,87.2,84.4,82.8,87.2,84.4,82.8,100,100,100,29.92,29.83,8,4,14,0.00
2013-8-15,87.0,83.2,78.6,87.0,83.2,78.6,100,100,100,29.96,29.87,9,2,13,0.11
2013-8-16,87.4,84.9,83.4,87.4,84.9,83.4,100,100,100,29.95,29.88,9,4,12,0.03
2013-8-17,87.8,85.4,83.8,87.8,85.4,83.8,100,100,100,29.96,29.89,9,5,12,0.00
2013-8-18,87.6,84.5,80.9,87.6,84.5,80.9,100,100,100,29.97,29.88,11,6,20,0.04
2013-8-19,87.8,84.4,77.2,87.8,84.4,77.2,100,100,100,29.96,29.86,13,5,17,0.11
2013-8-20,87.2,84.1,82.2,87.2,84.1,82.2,100,100,100,29.94,29.87,10,6,14,0.00
2013-8-21,87.6,84.4,78.5,87.6,84.4,78.5,100,100,100,29.96,29.87,15,6,16,0.18
2013-8-22,87.6,83.9,77.7,87.6,83.9,77.7,100,100,100,29.94,29.84,12,7,19,0.12
2013-8-23,87.4,84.6,81.4,87.4,84.6,81.4,100,100,100,29.91,29.83,7,4,12,0.03
2013-8-24,88.0,85.1,82.2,88.0,85.1,82.2,100,100,100,29.99,29.87,7,3,16,0.00
2013-8-25,88.0,84.6,83.2,88.0,84.6,83.2,100,100,100,30.03,29.92,8,3,12,0.00
2013-8-26,84.0,80.9,74.9,84.0,80.9,74.9,100,100,100,30.03,29.90,12,4,16,0.42
2013-8-27,81.1,79.5,73.3,81.1,79.5,73.3,100,100,100,29.97,29.87,14,3,14,0.12
2013-8-28,84.1,78.7,72.7,84.1,78.7,72.7,100,100,100,29.94,29.84,11,2,16,0.47
2013-8-29,85.9,82.8,79.4,85.9,82.8,79.4,100,100,100,29.94,29.86,3,0,6,0.00
2013-8-30,87.0,83.1,80.9,87.0,83.1,80.9,100,100,100,29.94,29.84,4,0,7,0.00
2013-8-31,87.8,83.5,80.1,87.8,83.5,80.1,100,100,100,29.90,29.83,6,1,10,0.04
2013-9-1,87.2,84.5,82.0,87.2,84.5,82.0,100,100,100,29.91,29.84,9,3,12,0.00
2013-9-2,88.4,84.3,82.8,88.4,84.3,82.8,100,100,100,29.95,29.85,7,2,9,0.00
2013-9-3,87.8,83.4,78.5,87.8,83.4,78.5,100,100,100,29.93,29.83,10,1,12,0.06
2013-9-4,88.0,84.7,81.1,88.0,84.7,81.1,100,100,100,29.95,29.84,10,4,12,0.00
2013-9-5,87.8,85.2,83.2,87.8,85.2,83.2,100,100,100,29.96,29.89,9,6,13,0.01
2013-9-6,88.6,85.4,83.0,88.6,85.4,83.0,100,100,100,29.93,29.83,8,5,13,0.00
2013-9-7,85.5,82.4,79.8,85.5,82.4,79.8,100,100,100,29.92,29.80,13,3,13,0.00
2013-9-8,86.3,82.7,79.4,86.3,82.7,79.4,100,100,100,29.86,29.76,8,2,10,0.00
2013-9-9,86.7,83.6,81.2,86.7,83.6,81.2,100,100,100,29.89,29.79,8,3,13,0.02
2013-9-10,87.2,83.6,76.8,87.2,83.6,76.8,100,100,100,29.92,29.83,10,5,16,0.26
2013-9-11,86.3,83.1,80.1,86.3,83.1,80.1,100,100,100,29.94,29.85,11,5,16,0.21
2013-9-12,85.7,82.1,76.5,85.7,82.1,76.5,100,100,100,29.92,29.79,12,1,15,0.21
2013-9-13,87.0,83.7,80.3,87.0,83.7,80.3,100,100,100,29.81,29.72,4,1,7,0.00
2013-9-14,87.6,84.5,81.2,87.6,84.5,81.2,100,100,100,29.87,29.74,9,2,12,0.00
2013-9-15,87.6,83.3,78.5,87.6,83.3,78.5,100,100,100,29.93,29.81,10,4,14,0.03
2013-9-16,83.6,79.9,74.0,83.6,79.9,74.0,100,100,100,29.98,29.84,16,4,22,0.56
2013-9-17,83.2,80.9,76.1,83.2,80.9,76.1,100,100,100,29.94,29.82,10,4,17,0.13
2013-9-18,84.3,81.9,78.8,84.3,81.9,78.8,100,100,100,29.91,29.81,9,2,12,0.00
2013-9-19,87.2,81.9,78.3,87.2,81.9,78.3,100,100,100,29.91,29.83,8,2,11,0.00
2013-9-20,85.1,82.0,78.6,85.1,82.0,78.6,100,100,100,29.90,29.80,11,5,16,0.00
2013-9-21,86.5,82.4,79.0,86.5,82.4,79.0,100,100,100,29.81,29.69,5,0,8,0.01
2013-9-22,86.7,84.6,81.8,86.7,84.6,81.8,100,100,100,29.80,29.69,7,3,12,0.00
2013-9-23,87.4,84.3,80.7,87.4,84.3,80.7,100,100,100,29.89,29.77,13,5,13,0.08
2013-9-24,87.8,84.7,82.8,87.8,84.7,82.8,100,100,100,29.89,29.81,8,3,12,0.01
2013-9-25,88.4,84.9,82.2,88.4,84.9,82.2,100,100,100,29.83,29.76,9,3,14,0.00
2013-9-26,88.2,84.9,82.6,88.2,84.9,82.6,100,100,100,29.82,29.75,10,4,16,0.00
2013-9-27,86.7,84.2,81.2,86.7,84.2,81.2,100,100,100,29.83,29.74,8,4,12,0.05
2013-9-28,86.7,83.5,78.3,86.7,83.5,78.3,100,100,100,29.86,29.77,8,2,16,0.00
2013-9-29,86.3,82.5,78.1,86.3,82.5,78.1,100,100,100,29.86,29.78,9,2,12,0.00
2013-9-30,86.7,82.8,77.9,86.7,82.8,77.9,100,100,100,29.89,29.80,9,4,13,0.18
2013-10-1,87.0,83.5,75.6,87.0,83.5,75.6,100,100,100,29.93,29.83,11,5,14,0.22
2013-10-2,86.5,82.0,76.0,86.5,82.0,76.0,100,100,100,29.92,29.84,6,2,12,0.20
2013-10-3,87.2,83.6,80.1,87.2,83.6,80.1,100,100,100,29.94,29.83,8,4,16,0.00
2013-10-4,85.9,83.4,81.8,85.9,83.4,81.8,100,100,100,29.94,29.87,8,5,12,0.00
2013-10-5,85.3,82.3,79.6,85.3,82.3,79.6,100,100,100,29.92,29.83,8,3,12,0.00
2013-10-6,87.4,83.3,79.8,87.4,83.3,79.8,100,100,100,29.89,29.79,4,0,8,0.00
2013-10-7,86.3,83.7,81.6,86.3,83.7,81.6,100,100,100,29.84,29.75,9,3,16,0.00
2013-10-8,87.0,83.2,79.9,87.0,83.2,79.9,100,100,100,29.87,29.77,8,3,16,0.00
2013-10-9,84.9,81.8,79.6,84.9,81.8,79.6,100,100,100,29.90,29.83,3,0,7,0.00
2013-10-10,85.5,81.6,78.3,85.5,81.6,78.3,100,100,100,29.92,29.84,9,4,17,0.00
2013-10-11,85.3,81.7,79.4,85.3,80.7,-99.9,100,99,100,29.91,29.83,10,5,17,0.00
2013-10-12,84.9,81.5,78.1,84.9,81.5,78.1,100,100,100,29.94,29.85,8,4,14,0.00
2013-10-13,84.3,81.2,78.1,84.3,81.2,78.1,100,100,100,29.95,29.86,8,4,13,0.00
2013-10-14,84.0,80.5,77.6,84.0,80.5,77.6,100,100,100,29.91,29.80,9,4,13,0.00
2013-10-15,84.1,79.9,77.6,84.1,79.9,77.6,100,100,100,29.86,29.78,9,3,13,0.00
2013-10-16,85.3,80.2,76.7,85.3,80.2,76.7,100,100,100,29.86,29.79,7,2,11,0.01
2013-10-17,85.7,81.2,74.6,85.7,81.2,74.6,100,100,100,29.88,29.80,6,2,10,0.07
2013-10-18,85.3,82.3,79.2,85.3,82.3,79.2,100,100,100,29.88,29.80,9,4,12,0.00
2013-10-19,85.9,83.0,81.1,85.9,83.0,81.1,100,100,100,29.87,29.80,6,2,11,0.00
2013-10-20,86.5,83.4,81.4,86.5,83.4,81.4,100,100,100,29.88,29.78,6,2,8,0.00
2013-10-21,87.0,83.8,81.8,87.0,83.8,81.8,100,100,100,29.92,29.83,6,2,10,0.00
2013-10-22,87.2,83.8,81.8,87.2,83.8,81.8,100,100,100,29.87,29.77,5,2,8,0.00
2013-10-23,86.1,83.2,80.3,86.1,83.2,80.3,100,100,100,29.86,29.74,8,2,13,0.00
2013-10-24,82.2,79.2,77.4,82.2,79.2,77.4,100,100,100,29.98,29.82,12,8,18,0.02
2013-10-25,81.2,78.0,75.3,81.2,78.0,75.3,100,100,100,30.04,29.94,13,10,19,0.00
2013-10-26,82.0,77.3,74.6,82.0,77.3,74.6,100,100,100,30.03,29.95,11,7,18,0.00
2013-10-27,81.2,77.4,74.4,81.2,77.4,74.4,100,100,100,29.99,29.91,11,6,20,0.00
2013-10-28,82.4,78.6,75.4,82.4,78.6,75.4,100,100,100,30.03,29.93,10,5,20,0.00
2013-10-29,82.6,78.6,75.3,82.6,78.6,75.3,100,100,100,30.07,29.97,12,6,21,0.00
2013-10-30,82.4,79.8,76.8,82.4,79.8,76.8,100,100,100,30.06,29.96,11,7,20,0.00
2013-10-31,83.8,80.9,79.2,83.8,80.9,79.2,100,100,100,30.00,29.89,9,5,19,0.00
2013-11-1,84.0,80.2,77.6,84.0,80.2,77.6,100,100,100,29.91,29.81,5,1,12,0.01
2013-11-2,78.8,78.2,77.6,78.8,78.2,77.6,100,100,100,29.86,29.84,0,0,0,0.00
2013-11-6,81.2,79.1,77.0,81.2,79.1,77.0,100,100,100,29.93,29.86,11,6,13,0.08
2013-11-7,81.4,77.7,75.8,81.4,77.7,75.8,100,100,100,29.92,29.83,8,4,12,0.00
2013-11-8,82.0,77.9,74.2,82.0,76.8,-99.9,100,99,100,29.92,29.84,12,8,19,0.00
2013-11-9,82.6,78.6,75.8,82.6,78.6,75.8,100,100,100,29.98,29.89,10,6,14,0.09
2013-11-10,81.6,77.8,73.5,81.6,77.8,73.5,100,100,100,30.00,29.92,11,5,16,1.50
2013-11-11,82.8,78.3,75.6,82.8,78.3,75.6,100,100,100,29.99,29.92,12,6,17,0.00
2013-11-12,82.8,78.8,76.1,82.8,78.8,76.1,100,100,100,29.97,29.86,9,4,14,0.00
2013-11-13,77.7,74.9,72.5,77.7,74.9,72.5,100,100,100,30.05,29.89,18,11,26,0.00
2013-11-14,76.8,75.0,73.2,76.8,75.0,73.2,100,100,100,30.08,29.99,15,11,24,0.00
2013-11-15,79.2,77.1,74.2,79.2,77.1,74.2,100,100,100,30.01,29.89,13,9,20,0.18
2013-11-16,81.6,79.3,76.8,81.6,79.3,76.8,100,100,100,29.97,29.88,11,8,17,0.01
2013-11-17,82.2,79.8,78.3,82.2,79.8,78.3,100,100,100,29.97,29.89,8,5,13,0.00
2013-11-18,83.4,79.3,76.8,83.4,79.3,76.8,100,100,100,29.92,29.83,6,2,8,0.00
2013-11-19,82.4,78.2,75.6,82.4,78.2,75.6,100,100,100,29.86,29.78,4,1,7,0.00
2013-11-20,82.4,78.4,74.7,82.4,77.3,-99.9,100,99,100,29.96,29.83,5,1,7,0.00
2013-11-21,82.4,79.6,76.8,82.4,79.6,76.8,100,100,100,30.02,29.94,8,3,13,0.00
2013-11-22,79.4,77.0,73.5,79.4,76.0,-99.9,100,99,100,30.02,29.94,12,4,16,0.57
2013-11-23,81.4,78.2,75.6,81.4,77.1,-99.9,100,99,100,29.96,29.87,10,5,18,0.02
2013-11-24,81.1,77.2,73.5,81.1,77.2,73.5,100,100,100,30.01,29.88,12,4,18,0.00
2013-11-25,77.7,74.9,71.1,77.7,74.9,71.1,100,100,100,30.04,29.92,16,11,26,0.49
2013-11-26,81.6,79.3,76.8,81.6,79.3,76.8,100,100,100,29.92,29.76,11,8,20,0.15
2013-11-27,80.3,73.6,67.1,80.3,73.6,67.1,100,100,100,30.01,29.74,16,8,21,1.98
2013-11-28,71.1,64.3,56.7,71.1,64.3,56.7,100,100,100,30.13,30.01,14,9,20,0.00
2013-11-29,74.0,70.2,65.8,74.0,69.2,-99.9,100,99,100,30.14,30.05,12,8,19,0.00
2013-11-30,75.4,70.7,66.3,75.4,70.7,66.3,100,100,100,30.09,29.99,12,8,19,0.00
2013-12-1,75.4,71.5,68.8,75.4,71.5,68.8,100,100,100,30.01,29.88,9,5,14,0.00
2013-12-2,69.9,68.5,66.9,69.9,68.5,66.9,100,100,100,29.88,29.81,7,2,8,0.00
2013-12-4,80.9,78.3,75.1,80.9,78.3,75.1,100,100,100,29.99,29.92,5,2,9,0.00
2013-12-5,80.7,78.0,76.0,80.7,78.0,76.0,100,100,100,30.06,29.96,6,3,12,0.00
2013-12-6,80.9,78.3,75.8,80.9,78.3,75.8,100,100,100,30.07,29.97,11,6,19,0.02
2013-12-7,80.9,77.5,75.6,80.9,77.5,75.6,100,100,100,30.10,30.03,9,3,12,0.00
2013-12-8,80.9,78.3,75.1,80.9,74.1,-99.9,100,98,100,30.09,30.01,9,6,17,0.00
2013-12-9,80.9,78.7,76.0,80.9,78.7,76.0,100,100,100,30.08,29.99,12,6,16,0.00
2013-12-10,81.8,79.0,77.2,81.8,79.0,77.2,100,100,100,30.05,29.98,7,3,12,0.00
2013-12-11,79.9,76.9,73.7,79.9,74.8,-99.9,100,99,100,30.09,30.00,11,2,13,0.61
2013-12-12,79.8,75.8,70.3,79.8,75.8,70.3,100,100,100,30.11,30.01,14,5,20,0.30
2013-12-13,78.5,74.7,69.9,78.5,74.7,69.9,100,100,100,30.06,29.96,13,9,21,0.07
2013-12-14,80.9,78.7,74.9,80.9,78.7,74.9,100,100,100,29.99,29.89,11,8,18,0.00
2013-12-15,82.6,78.6,75.6,82.6,78.6,75.6,100,100,100,29.98,29.87,7,3,13,0.08
2013-12-16,75.6,72.5,69.1,75.6,72.5,69.1,100,100,100,30.06,29.94,12,7,18,0.00
2013-12-17,76.7,71.4,67.6,76.7,71.4,67.6,100,100,100,30.08,29.98,11,6,19,0.00
2013-12-18,74.0,71.6,68.8,74.0,71.6,68.8,100,100,100,30.13,30.03,12,8,19,0.00
2013-12-19,76.5,72.5,67.6,76.5,72.5,67.6,100,100,100,30.12,30.02,11,7,16,0.00
2013-12-20,79.4,77.5,75.8,79.4,77.5,75.8,100,100,100,30.06,29.98,10,7,17,0.00
2013-12-21,80.1,78.5,77.2,80.1,78.5,77.2,100,100,100,30.03,29.94,13,9,17,0.00
2013-12-22,81.2,79.1,78.1,81.2,79.1,78.1,100,100,100,30.05,29.96,13,8,18,0.00
2013-12-23,81.4,78.8,77.4,81.4,78.8,77.4,100,100,100,30.08,30.01,10,5,18,0.00
2013-12-24,79.4,75.5,68.9,79.4,75.5,68.9,100,100,100,30.08,29.97,15,4,24,0.00
2013-12-25,77.4,71.9,68.8,77.4,71.9,68.8,100,100,100,30.04,29.97,12,7,24,0.40
2013-12-26,78.5,76.2,74.4,78.5,76.2,74.4,100,100,100,30.05,29.95,9,4,13,0.04
2013-12-27,79.6,76.6,73.7,79.6,76.6,73.7,100,100,100,30.06,29.97,10,5,16,0.01
2013-12-28,80.3,78.3,77.2,80.3,78.3,77.2,100,100,100,30.04,29.92,10,8,16,0.00
2013-12-29,79.4,78.0,75.1,79.4,78.0,75.1,100,100,100,29.97,29.87,12,5,19,0.01
2013-12-30,78.3,75.4,73.7,78.3,75.4,73.7,100,100,100,30.03,29.89,7,1,9,0.00
2013-12-31,77.2,73.6,70.1,77.2,73.6,70.1,100,100,100,30.09,29.99,12,7,21,0.00
2014-1-1,81.2,78.4,74.7,81.2,78.4,74.7,100,100,100,30.06,29.95,11,7,17,0.00
2014-1-2,81.6,78.2,74.7,81.6,77.1,-99.9,100,99,100,29.95,29.82,11,4,18,0.00